Beulah, Michigan
Current Conditions -  °F | °C
As of 3:54 AM on Friday 28 Nov 2014 (Local Time) from KFKS Reporting Station
Broken Clouds Broken Clouds  
Wind Chill: 18°   Ceiling: 3100
Heat Index: 18°   Visibility: 10mi
Dew Point: 15°   Wind: 0mph
Humidity: 86%   Direction: NA
Pressure: 30.31"   Gusts: NA
Location:  44.63°N, 86.09°W
Report Text: KFKS 280854Z AUTO 00000KT 10SM BKN031 M08/M10 A3031 RMK AO2 T10761096
Loading
Personal Weather Stations






























Interactive Weather Map New forecast layout! Learn more

10-Day Weather Forecast

Advertisements
Track Severe Weather on mobile